createdAt,value
2023-04-18T00:03:00.924Z,11.14
2023-04-18T00:06:05.881Z,11.14
2023-04-18T00:09:08.181Z,11.19
2023-04-18T00:12:11.220Z,11.15
2023-04-18T00:15:13.665Z,11.11
2023-04-18T00:18:17.268Z,11.22
2023-04-18T00:21:19.563Z,11.18
2023-04-18T00:24:22.194Z,11.23
2023-04-18T00:27:24.420Z,11.20
2023-04-18T00:30:27.142Z,11.16
2023-04-18T00:33:29.464Z,11.22
2023-04-18T00:36:31.768Z,11.07
2023-04-18T00:39:35.740Z,11.03
2023-04-18T00:42:37.923Z,10.92
2023-04-18T00:45:40.103Z,10.98
2023-04-18T00:48:42.424Z,10.93
2023-04-18T00:51:44.856Z,10.93
2023-04-18T00:54:47.409Z,10.94
2023-04-18T00:57:50.856Z,10.92
2023-04-18T01:00:54.554Z,10.96
2023-04-18T01:03:56.941Z,11.02
2023-04-18T01:06:59.357Z,11.04
2023-04-18T01:10:02.029Z,11.10
2023-04-18T01:13:11.803Z,11.14
2023-04-18T01:16:14.040Z,11.10
2023-04-18T01:19:19.564Z,10.97
2023-04-18T01:22:21.779Z,11.06
2023-04-18T01:25:24.007Z,11.10
2023-04-18T01:28:27.801Z,11.05
2023-04-18T01:31:30.155Z,10.98
2023-04-18T01:34:32.417Z,11.06
2023-04-18T01:37:34.591Z,11.03
2023-04-18T01:40:36.839Z,11.10
2023-04-18T01:43:39.086Z,11.14
2023-04-18T01:46:41.365Z,11.01
2023-04-18T01:49:48.118Z,11.01
2023-04-18T01:52:50.343Z,11.23
2023-04-18T01:55:52.751Z,11.09
2023-04-18T01:58:54.903Z,11.19
2023-04-18T02:01:57.207Z,11.10
2023-04-18T02:04:59.528Z,11.10
2023-04-18T02:08:01.724Z,11.18
2023-04-18T02:11:03.892Z,11.11
2023-04-18T02:14:06.604Z,11.20
2023-04-18T02:17:08.806Z,11.18
2023-04-18T02:20:11.110Z,11.18
2023-04-18T02:23:13.346Z,11.23
2023-04-18T02:26:15.529Z,11.14
2023-04-18T02:29:17.736Z,11.09
2023-04-18T02:32:19.983Z,11.04
2023-04-18T02:35:22.501Z,11.14
2023-04-18T02:38:24.749Z,11.12
2023-04-18T02:41:26.950Z,11.09
2023-04-18T02:44:29.182Z,11.00
2023-04-18T02:47:37.551Z,11.02
2023-04-18T02:50:45.919Z,11.03
2023-04-18T02:53:48.463Z,11.20
2023-04-18T02:56:56.995Z,11.21
2023-04-18T02:59:59.183Z,10.97
2023-04-18T03:03:01.520Z,11.02
2023-04-18T03:06:04.090Z,11.15
2023-04-18T03:09:06.277Z,11.10
2023-04-18T03:12:08.485Z,10.98
2023-04-18T03:15:11.462Z,11.05
2023-04-18T03:18:13.689Z,10.98
2023-04-18T03:21:15.897Z,10.94
2023-04-18T03:24:18.099Z,10.88
2023-04-18T03:27:20.260Z,10.87
2023-04-18T03:30:22.709Z,11.07
2023-04-18T03:33:25.092Z,10.95
2023-04-18T03:36:28.747Z,10.97
2023-04-18T03:39:30.994Z,10.88
2023-04-18T03:42:33.169Z,10.67
2023-04-18T03:45:35.368Z,10.54
2023-04-18T03:48:37.584Z,10.44
2023-04-18T03:51:45.282Z,10.67
2023-04-18T03:54:47.489Z,10.49
2023-04-18T03:57:49.722Z,10.59
2023-04-18T04:00:52.092Z,10.61
2023-04-18T04:03:54.473Z,10.57
2023-04-18T04:06:56.817Z,10.56
2023-04-18T04:09:59.019Z,10.60
2023-04-18T04:13:01.212Z,10.45
2023-04-18T04:16:03.583Z,10.59
2023-04-18T04:19:05.879Z,10.57
2023-04-18T04:22:08.218Z,10.63
2023-04-18T04:25:10.618Z,10.58
2023-04-18T04:28:14.026Z,10.46
2023-04-18T04:31:16.449Z,10.69
2023-04-18T04:34:19.122Z,10.58
2023-04-18T04:37:21.315Z,10.57
2023-04-18T04:40:23.841Z,10.67
2023-04-18T04:43:28.807Z,10.64
2023-04-18T04:46:31.195Z,10.72
2023-04-18T04:49:33.387Z,10.75
2023-04-18T04:52:35.791Z,10.75
2023-04-18T04:55:38.830Z,10.83
2023-04-18T04:58:41.014Z,10.83
2023-04-18T05:01:43.289Z,10.88
2023-04-18T05:05:06.042Z,10.86
2023-04-18T05:08:08.617Z,10.93
2023-04-18T05:11:10.905Z,10.87
2023-04-18T05:14:13.664Z,10.95
2023-04-18T05:17:16.473Z,10.92
2023-04-18T05:20:18.853Z,11.06
2023-04-18T05:23:21.524Z,11.28
2023-04-18T05:26:24.474Z,11.16
2023-04-18T05:29:27.216Z,11.26
2023-04-18T05:32:29.925Z,11.19
2023-04-18T05:35:32.580Z,11.11
2023-04-18T05:38:35.385Z,11.28
2023-04-18T05:41:38.076Z,11.24
2023-04-18T05:44:40.736Z,11.30
2023-04-18T05:47:43.254Z,11.33
2023-04-18T05:50:45.923Z,11.48
2023-04-18T05:53:48.112Z,11.41
2023-04-18T05:56:50.424Z,11.44
2023-04-18T05:59:52.672Z,11.63
2023-04-18T06:02:55.081Z,11.69
2023-04-18T06:05:57.883Z,11.82
2023-04-18T06:09:00.218Z,11.71
2023-04-18T06:12:02.391Z,11.61
2023-04-18T06:15:05.717Z,11.74
2023-04-18T06:18:07.983Z,11.72
2023-04-18T06:21:10.194Z,11.77
2023-04-18T06:24:12.806Z,11.77
2023-04-18T06:27:27.935Z,11.88
2023-04-18T06:30:30.533Z,11.78
2023-04-18T06:33:33.424Z,11.73
2023-04-18T06:36:35.670Z,11.94
2023-04-18T06:39:37.870Z,11.85
2023-04-18T06:42:40.168Z,11.97
2023-04-18T06:45:42.440Z,12.16
2023-04-18T06:48:44.719Z,12.31
2023-04-18T06:51:46.884Z,12.14
2023-04-18T06:54:49.051Z,12.08
2023-04-18T06:57:51.314Z,12.12
2023-04-18T07:00:54.226Z,12.30
2023-04-18T07:03:56.633Z,12.31
2023-04-18T07:06:58.894Z,12.38
2023-04-18T07:10:01.401Z,12.44
2023-04-18T07:13:03.582Z,12.41
2023-04-18T07:16:06.257Z,12.57
2023-04-18T07:19:08.431Z,12.67
2023-04-18T07:22:10.762Z,12.82
2023-04-18T07:25:12.936Z,12.74
2023-04-18T07:28:15.266Z,12.80
2023-04-18T07:31:19.500Z,12.99
2023-04-18T07:34:22.915Z,12.87
2023-04-18T07:37:25.397Z,12.81
2023-04-18T07:40:27.727Z,12.83
2023-04-18T07:43:30.003Z,13.03
2023-04-18T07:46:33.966Z,13.27
2023-04-18T07:49:36.948Z,13.41
2023-04-18T07:52:40.229Z,13.75
2023-04-18T07:55:43.354Z,13.91
2023-04-18T07:58:45.637Z,13.75
2023-04-18T08:01:47.856Z,13.91
2023-04-18T08:04:52.159Z,13.84
2023-04-18T08:07:54.579Z,13.96
2023-04-18T08:10:56.877Z,13.89
2023-04-18T08:13:59.363Z,14.03
2023-04-18T08:17:01.566Z,13.85
2023-04-18T08:20:07.225Z,13.67
2023-04-18T08:23:12.214Z,13.61
2023-04-18T08:26:15.432Z,13.84
2023-04-18T08:29:17.707Z,14.01
2023-04-18T08:32:19.923Z,13.70
2023-04-18T08:35:22.183Z,13.82
2023-04-18T08:38:24.381Z,13.97
2023-04-18T08:41:27.160Z,14.08
2023-04-18T08:44:29.923Z,14.31
2023-04-18T08:47:32.158Z,14.73
2023-04-18T08:50:34.429Z,15.34
2023-04-18T08:53:36.624Z,15.61
2023-04-18T08:56:38.871Z,15.37
2023-04-18T08:59:43.162Z,15.14
2023-04-18T09:02:47.295Z,15.23
2023-04-18T09:06:08.392Z,15.02
2023-04-18T09:09:10.629Z,15.37
2023-04-18T09:12:18.390Z,15.49
2023-04-18T09:15:23.606Z,15.76
2023-04-18T09:18:25.986Z,15.81
2023-04-18T09:21:29.785Z,15.94
2023-04-18T09:24:32.494Z,15.67
2023-04-18T09:27:34.910Z,16.07
2023-04-18T09:30:42.228Z,16.14
2023-04-18T09:33:56.793Z,15.87
2023-04-18T09:37:07.347Z,15.95
2023-04-18T09:40:27.489Z,15.49
2023-04-18T09:43:29.682Z,15.33
2023-04-18T09:46:33.180Z,15.36
2023-04-18T09:49:35.574Z,15.11
2023-04-18T09:52:42.141Z,15.63
2023-04-18T09:55:44.358Z,15.68
2023-04-18T09:58:47.664Z,15.92
2023-04-18T10:01:50.031Z,15.88
2023-04-18T10:04:54.155Z,15.80
2023-04-18T10:07:56.979Z,15.73
2023-04-18T10:10:59.182Z,16.04
2023-04-18T10:14:04.622Z,16.21
2023-04-18T10:17:07.536Z,16.13
2023-04-18T10:20:17.268Z,15.84
2023-04-18T10:23:31.926Z,15.72
2023-04-18T10:26:46.954Z,15.78
2023-04-18T10:29:54.039Z,15.79
2023-04-18T10:32:56.279Z,15.74
2023-04-18T10:35:59.567Z,15.89
2023-04-18T10:39:03.525Z,16.22
2023-04-18T10:42:05.731Z,16.58
2023-04-18T10:45:21.542Z,16.56
2023-04-18T10:48:25.539Z,16.23
2023-04-18T10:51:29.079Z,16.19
2023-04-18T10:54:49.770Z,16.49
2023-04-18T10:57:55.999Z,16.46
2023-04-18T11:00:58.296Z,16.52
2023-04-18T11:04:01.091Z,16.54
2023-04-18T11:07:03.560Z,16.38
2023-04-18T11:10:07.257Z,16.53
2023-04-18T11:13:09.499Z,16.48
2023-04-18T11:16:26.297Z,16.90
2023-04-18T11:19:28.620Z,17.20
2023-04-18T11:22:31.120Z,17.18
2023-04-18T11:25:36.377Z,17.14
2023-04-18T11:28:38.591Z,16.79
2023-04-18T11:31:41.587Z,16.68
2023-04-18T11:34:43.835Z,17.06
2023-04-18T11:37:46.143Z,17.45
2023-04-18T11:40:49.092Z,17.02
2023-04-18T11:43:51.298Z,17.02
2023-04-18T11:46:54.031Z,16.71
2023-04-18T11:50:03.532Z,17.37
2023-04-18T11:53:05.834Z,17.59
2023-04-18T11:56:08.096Z,18.06
2023-04-18T11:59:10.345Z,17.93
2023-04-18T12:02:16.751Z,17.73
2023-04-18T12:05:30.422Z,17.78
2023-04-18T12:08:33.004Z,17.22
2023-04-18T12:11:35.165Z,17.13
2023-04-18T12:14:37.385Z,17.19
2023-04-18T12:17:39.714Z,17.15
2023-04-18T12:20:46.195Z,17.15
2023-04-18T12:23:48.553Z,17.22
2023-04-18T12:26:50.950Z,17.40
2023-04-18T12:29:53.092Z,16.92
2023-04-18T12:33:01.922Z,17.23
2023-04-18T12:36:11.174Z,17.46
2023-04-18T12:39:13.458Z,17.88
2023-04-18T12:42:15.858Z,17.84
2023-04-18T12:45:19.463Z,17.45
2023-04-18T12:48:21.614Z,17.53
2023-04-18T12:51:24.887Z,17.53
2023-04-18T12:54:27.216Z,17.48
2023-04-18T12:57:31.586Z,17.42
2023-04-18T13:00:34.118Z,17.43
2023-04-18T13:03:36.753Z,17.71
2023-04-18T13:06:39.158Z,17.37
2023-04-18T13:09:41.397Z,17.49
2023-04-18T13:12:44.161Z,17.52
2023-04-18T13:15:46.382Z,17.43
2023-04-18T13:18:48.556Z,17.63
2023-04-18T13:21:51.111Z,17.59
2023-04-18T13:24:53.399Z,17.22
2023-04-18T13:27:56.358Z,17.36
2023-04-18T13:30:59.702Z,17.49
2023-04-18T13:34:02.054Z,17.68
2023-04-18T13:37:04.234Z,17.43
2023-04-18T13:40:07.184Z,17.46
2023-04-18T13:43:11.120Z,17.31
2023-04-18T13:46:13.741Z,17.47
2023-04-18T13:49:16.169Z,17.71
2023-04-18T13:52:18.413Z,17.95
2023-04-18T13:55:21.077Z,17.97
2023-04-18T13:58:23.256Z,17.69
2023-04-18T14:01:25.499Z,17.61
2023-04-18T14:04:27.838Z,17.80
2023-04-18T14:07:31.140Z,17.86
2023-04-18T14:10:33.331Z,17.89
2023-04-18T14:13:35.906Z,17.52
2023-04-18T14:16:38.096Z,17.48
2023-04-18T14:19:40.313Z,17.19
2023-04-18T14:22:42.499Z,16.93
2023-04-18T14:25:44.722Z,17.25
2023-04-18T14:28:47.064Z,17.42
2023-04-18T14:31:49.314Z,17.34
2023-04-18T14:34:52.525Z,17.19
2023-04-18T14:37:54.734Z,17.40
2023-04-18T14:40:58.299Z,17.45
2023-04-18T14:44:00.459Z,17.21
2023-04-18T14:47:02.787Z,16.91
2023-04-18T14:50:09.532Z,16.77
2023-04-18T14:53:13.284Z,16.79
2023-04-18T14:56:16.362Z,16.84
2023-04-18T14:59:18.759Z,16.99
2023-04-18T15:02:21.784Z,17.28
2023-04-18T15:05:24.135Z,17.34
2023-04-18T15:08:26.842Z,17.32
2023-04-18T15:11:29.052Z,17.45
2023-04-18T15:14:32.800Z,17.18
2023-04-18T15:17:35.908Z,17.01
2023-04-18T15:20:39.522Z,16.96
2023-04-18T15:23:41.999Z,17.06
2023-04-18T15:26:44.279Z,17.19
2023-04-18T15:29:47.031Z,17.15
2023-04-18T15:32:49.311Z,17.18
2023-04-18T15:35:51.537Z,17.15
2023-04-18T15:38:53.721Z,17.23
2023-04-18T15:41:56.575Z,17.14
2023-04-18T15:44:58.774Z,17.34
2023-04-18T15:48:01.026Z,17.28
2023-04-18T15:51:03.905Z,17.25
2023-04-18T15:54:06.581Z,17.20
2023-04-18T15:57:09.873Z,17.10
2023-04-18T16:00:16.157Z,17.17
2023-04-18T16:03:18.668Z,16.99
2023-04-18T16:06:23.344Z,16.98
2023-04-18T16:09:25.693Z,17.05
2023-04-18T16:12:27.895Z,16.75
2023-04-18T16:15:31.430Z,16.73
2023-04-18T16:18:34.185Z,16.55
2023-04-18T16:21:36.830Z,16.64
2023-04-18T16:24:41.554Z,16.54
2023-04-18T16:27:44.528Z,16.58
2023-04-18T16:30:47.303Z,16.31
2023-04-18T16:33:52.543Z,16.29
2023-04-18T16:36:55.665Z,16.39
2023-04-18T16:39:58.067Z,16.24
2023-04-18T16:43:00.602Z,16.15
2023-04-18T16:46:03.402Z,16.27
2023-04-18T16:49:05.623Z,16.25
2023-04-18T16:52:08.008Z,16.07
2023-04-18T16:55:10.987Z,16.12
2023-04-18T16:58:13.266Z,16.05
2023-04-18T17:01:15.601Z,15.97
2023-04-18T17:04:19.081Z,15.92
2023-04-18T17:07:21.300Z,16.01
2023-04-18T17:10:23.783Z,15.76
2023-04-18T17:13:27.236Z,15.80
2023-04-18T17:16:31.864Z,15.68
2023-04-18T17:19:34.242Z,15.87
2023-04-18T17:22:36.713Z,15.64
2023-04-18T17:25:39.208Z,15.60
2023-04-18T17:28:41.495Z,15.67
2023-04-18T17:31:44.267Z,15.65
2023-04-18T17:34:46.756Z,15.63
2023-04-18T17:37:50.036Z,15.32
2023-04-18T17:41:02.339Z,15.14
2023-04-18T17:44:05.642Z,14.94
2023-04-18T17:47:08.179Z,14.81
2023-04-18T17:50:10.960Z,14.74
2023-04-18T17:53:13.506Z,14.32
2023-04-18T17:56:16.391Z,14.36
2023-04-18T17:59:18.927Z,14.26
2023-04-18T18:02:23.325Z,14.05
2023-04-18T18:05:30.396Z,14.00
2023-04-18T18:08:33.382Z,13.83
2023-04-18T18:11:37.153Z,13.67
2023-04-18T18:14:40.579Z,13.67
2023-04-18T18:17:43.238Z,13.62
2023-04-18T18:20:45.878Z,13.55
2023-04-18T18:23:48.758Z,13.62
2023-04-18T18:26:51.863Z,13.50
2023-04-18T18:29:54.505Z,13.16
2023-04-18T18:32:57.348Z,12.97
2023-04-18T18:35:59.915Z,13.08
2023-04-18T18:39:02.296Z,13.08
2023-04-18T18:42:04.984Z,13.00
2023-04-18T18:45:08.344Z,13.24
2023-04-18T18:48:11.564Z,12.79
2023-04-18T18:51:15.803Z,13.05
2023-04-18T18:54:18.416Z,13.00
2023-04-18T18:57:21.162Z,13.49
2023-04-18T19:00:24.855Z,13.70
2023-04-18T19:03:27.911Z,13.74
2023-04-18T19:06:31.271Z,13.61
2023-04-18T19:09:34.180Z,13.79
2023-04-18T19:12:37.859Z,13.79
2023-04-18T19:15:40.623Z,13.79
2023-04-18T19:18:46.959Z,13.67
2023-04-18T19:21:50.117Z,13.70
2023-04-18T19:24:52.765Z,13.70
2023-04-18T19:27:55.336Z,13.71
2023-04-18T19:30:57.876Z,13.68
2023-04-18T19:34:00.596Z,13.53
2023-04-18T19:37:03.718Z,13.68
2023-04-18T19:40:07.385Z,13.76
2023-04-18T19:43:09.857Z,13.60
2023-04-18T19:46:12.382Z,13.54
2023-04-18T19:49:15.271Z,13.42
2023-04-18T19:52:18.451Z,13.36
2023-04-18T19:55:20.997Z,13.40
2023-04-18T19:58:44.923Z,13.36
2023-04-18T20:01:47.801Z,13.37
2023-04-18T20:04:50.645Z,13.43
2023-04-18T20:07:53.194Z,13.23
2023-04-18T20:10:56.521Z,13.30
2023-04-18T20:14:00.664Z,13.24
2023-04-18T20:17:03.074Z,13.25
2023-04-18T20:20:08.281Z,13.32
2023-04-18T20:23:11.563Z,13.32
2023-04-18T20:26:14.135Z,13.34
2023-04-18T20:29:16.983Z,13.32
2023-04-18T20:32:19.412Z,13.47
2023-04-18T20:35:22.512Z,13.33
2023-04-18T20:38:26.063Z,13.47
2023-04-18T20:41:31.008Z,13.17
2023-04-18T20:44:35.161Z,12.85
2023-04-18T20:47:39.233Z,12.81
2023-04-18T20:50:43.908Z,13.00
2023-04-18T20:53:46.419Z,12.79
2023-04-18T20:56:48.757Z,12.63
2023-04-18T20:59:51.029Z,12.61
2023-04-18T21:02:53.309Z,12.61
2023-04-18T21:05:56.022Z,12.53
2023-04-18T21:08:58.377Z,12.61
2023-04-18T21:12:01.747Z,12.62
2023-04-18T21:15:05.529Z,12.46
2023-04-18T21:18:07.831Z,12.46
2023-04-18T21:21:10.049Z,12.46
2023-04-18T21:24:12.369Z,12.40
2023-04-18T21:27:15.901Z,12.42
2023-04-18T21:30:18.221Z,12.40
2023-04-18T21:33:20.430Z,12.29
2023-04-18T21:36:24.220Z,12.32
2023-04-18T21:39:27.361Z,12.25
2023-04-18T21:42:29.556Z,12.29
2023-04-18T21:45:31.820Z,12.32
2023-04-18T21:48:34.102Z,12.37
2023-04-18T21:51:36.388Z,12.40
2023-04-18T21:54:39.925Z,12.47
2023-04-18T21:57:42.115Z,12.43
2023-04-18T22:00:44.338Z,12.42
2023-04-18T22:03:46.990Z,12.42
2023-04-18T22:06:49.401Z,12.53
2023-04-18T22:09:51.689Z,12.55
2023-04-18T22:12:54.235Z,12.45
2023-04-18T22:15:58.190Z,12.48
2023-04-18T22:19:01.385Z,12.41
2023-04-18T22:22:03.724Z,12.42
2023-04-18T22:25:07.313Z,12.33
2023-04-18T22:28:09.538Z,12.19
2023-04-18T22:31:11.772Z,12.22
2023-04-18T22:34:14.276Z,12.26
2023-04-18T22:37:16.757Z,12.20
2023-04-18T22:40:18.983Z,12.06
2023-04-18T22:43:23.657Z,12.01
2023-04-18T22:46:27.284Z,11.97
2023-04-18T22:49:30.115Z,11.98
2023-04-18T22:52:32.300Z,12.06
2023-04-18T22:55:34.543Z,12.10
2023-04-18T22:58:36.750Z,12.08
2023-04-18T23:01:38.977Z,12.02
2023-04-18T23:04:42.470Z,12.02
2023-04-18T23:07:44.687Z,11.98
2023-04-18T23:10:46.915Z,11.85
2023-04-18T23:13:49.115Z,11.82
2023-04-18T23:16:51.291Z,11.71
2023-04-18T23:19:53.527Z,11.79
2023-04-18T23:22:56.086Z,11.83
2023-04-18T23:25:58.287Z,11.86
2023-04-18T23:29:00.533Z,11.89
2023-04-18T23:32:02.876Z,11.96
2023-04-18T23:35:06.187Z,11.95
2023-04-18T23:38:08.687Z,11.91
2023-04-18T23:41:10.900Z,11.99
2023-04-18T23:44:13.200Z,11.92
2023-04-18T23:47:15.696Z,11.85
2023-04-18T23:50:18.178Z,11.75
2023-04-18T23:53:21.733Z,11.81
2023-04-18T23:56:24.043Z,11.81
2023-04-18T23:59:26.233Z,11.80
